Time;durP1;ratioP1;P1;durP2;ratioP2;P2;SDS_P1;SDS_P2;PMS_P1;PMS_P2;Temp;Humidity;BMP_temperature;BMP_pressure;BME280_temperature;BME280_humidity;BME280_pressure;Samples;Min_cycle;Max_cycle;Signal;HPM_P1;HPM_P2
2021/10/23 00:00:04;;;;;;;2.97;1.63;;;;;;;0.69;100.00;93809.28;2083386;28;20021;-90
2021/10/23 00:01:05;;;;;;;6.82;2.40;;;;;;;0.73;100.00;93807.50;2090532;28;20108;-88
2021/10/23 00:02:06;;;;;;;3.85;1.67;;;;;;;0.71;100.00;93803.69;2081858;28;20025;-86
2021/10/23 00:03:09;;;;;;;5.82;2.67;;;;;;;0.73;100.00;93804.09;2082136;28;20036;-87
2021/10/23 00:04:10;;;;;;;7.25;1.98;;;;;;;0.77;100.00;93802.34;2080695;28;20410;-88
2021/10/23 00:05:14;;;;;;;3.83;2.20;;;;;;;0.83;100.00;93808.88;2073258;28;20824;-90
2021/10/23 00:06:15;;;;;;;3.00;1.92;;;;;;;0.98;100.00;93802.88;2088582;28;20020;-87
2021/10/23 00:07:16;;;;;;;2.70;1.77;;;;;;;1.02;100.00;93802.97;2090154;28;20036;-87
2021/10/23 00:08:20;;;;;;;6.22;2.10;;;;;;;1.10;100.00;93809.16;2082496;28;20420;-87
2021/10/23 00:09:21;;;;;;;5.80;2.10;;;;;;;1.09;100.00;93803.13;2082553;28;20120;-87
2021/10/23 00:10:22;;;;;;;6.03;1.95;;;;;;;0.96;100.00;93805.06;2080640;28;20417;-87
2021/10/23 00:11:23;;;;;;;3.95;1.60;;;;;;;0.91;100.00;93805.31;2089067;28;20025;-90
2021/10/23 00:12:24;;;;;;;6.45;2.55;;;;;;;0.94;100.00;93799.41;2089918;28;20371;-85
2021/10/23 00:13:25;;;;;;;2.78;1.85;;;;;;;0.96;100.00;93806.94;2089132;28;20021;-88
2021/10/23 00:14:27;;;;;;;4.13;2.10;;;;;;;0.93;100.00;93805.78;2085200;28;20545;-89
2021/10/23 00:15:28;;;;;;;8.57;2.95;;;;;;;0.90;100.00;93805.66;2087624;28;20082;-87
2021/10/23 00:16:29;;;;;;;3.17;2.30;;;;;;;0.84;100.00;93799.13;2088038;28;20027;-86
2021/10/23 00:17:30;;;;;;;3.83;1.90;;;;;;;0.84;100.00;93802.53;2081480;28;20029;-87
2021/10/23 00:18:31;;;;;;;3.92;1.77;;;;;;;0.90;100.00;93800.41;2081992;28;20025;-86
2021/10/23 00:19:32;;;;;;;6.20;2.72;;;;;;;0.91;100.00;93801.94;2097056;28;20070;-87
2021/10/23 00:20:33;;;;;;;4.38;2.25;;;;;;;0.92;100.00;93800.81;2090744;28;20028;-86
2021/10/23 00:21:34;;;;;;;8.82;2.15;;;;;;;0.95;100.00;93805.41;2071590;28;20025;-87
2021/10/23 00:22:35;;;;;;;7.38;2.20;;;;;;;0.93;100.00;93803.13;2080847;28;20026;-88
2021/10/23 00:23:36;;;;;;;4.38;2.10;;;;;;;1.00;100.00;93802.53;2076766;28;20112;-87
2021/10/23 00:24:37;;;;;;;4.20;2.10;;;;;;;1.05;100.00;93812.06;2079922;28;20135;-87
2021/10/23 00:25:38;;;;;;;3.45;2.25;;;;;;;1.06;100.00;93819.63;2089429;28;20072;-88
2021/10/23 00:26:39;;;;;;;4.50;2.15;;;;;;;1.18;100.00;93808.25;2079174;28;20076;-90
2021/10/23 00:27:40;;;;;;;2.75;1.90;;;;;;;1.04;100.00;93816.56;2070155;28;20099;-87
2021/10/23 00:28:41;;;;;;;3.17;1.90;;;;;;;1.07;100.00;93805.34;2068643;28;20021;-86
2021/10/23 00:29:42;;;;;;;3.85;1.92;;;;;;;1.06;100.00;93811.72;2079668;28;20052;-88
2021/10/23 00:30:43;;;;;;;5.38;1.90;;;;;;;1.05;100.00;93812.81;2081757;28;20025;-88
2021/10/23 00:31:44;;;;;;;3.20;1.73;;;;;;;1.05;100.00;93817.31;2082179;28;20021;-89
2021/10/23 00:32:45;;;;;;;4.10;2.00;;;;;;;0.95;100.00;93814.06;2082094;28;20084;-88
2021/10/23 00:33:46;;;;;;;2.75;1.92;;;;;;;0.90;100.00;93816.19;2083636;28;20048;-85
2021/10/23 00:34:46;;;;;;;3.28;1.92;;;;;;;0.94;100.00;93819.69;2083747;28;20104;-87
2021/10/23 00:35:48;;;;;;;5.18;2.20;;;;;;;0.95;100.00;93811.44;2081765;28;20532;-87
2021/10/23 00:36:49;;;;;;;2.72;1.90;;;;;;;0.96;100.00;93820.88;2094064;28;20491;-89
2021/10/23 00:37:50;;;;;;;2.70;1.60;;;;;;;0.98;100.00;93817.91;2095354;28;20067;-88
2021/10/23 00:38:51;;;;;;;2.92;1.50;;;;;;;1.07;100.00;93823.03;2073346;28;20390;-87
2021/10/23 00:39:52;;;;;;;2.05;1.52;;;;;;;1.03;100.00;93822.16;2081873;28;20104;-89
2021/10/23 00:40:53;;;;;;;4.43;1.52;;;;;;;1.08;100.00;93822.69;2087819;28;20024;-88
2021/10/23 00:41:54;;;;;;;5.90;1.40;;;;;;;1.07;100.00;93829.06;2098590;28;20043;-89
2021/10/23 00:42:56;;;;;;;4.50;2.03;;;;;;;1.07;100.00;93825.66;2089687;28;20031;-88
2021/10/23 00:43:57;;;;;;;2.33;1.48;;;;;;;1.18;100.00;93830.06;2074209;28;20070;-89
2021/10/23 00:44:58;;;;;;;3.70;1.85;;;;;;;1.15;100.00;93832.63;2081645;28;20018;-86
2021/10/23 00:45:59;;;;;;;4.60;1.50;;;;;;;1.06;100.00;93819.63;2086763;28;20021;-87
2021/10/23 00:47:05;;;;;;;2.65;1.58;;;;;;;1.07;100.00;93831.69;2084146;28;20391;-86
2021/10/23 00:48:06;;;;;;;6.90;2.00;;;;;;;1.16;100.00;93829.66;2082183;28;20024;-88
2021/10/23 00:49:07;;;;;;;3.75;1.85;;;;;;;1.20;100.00;93827.88;2081628;28;20048;-87
2021/10/23 00:50:08;;;;;;;5.05;2.10;;;;;;;1.11;100.00;93827.28;2087421;28;20553;-85
2021/10/23 00:51:10;;;;;;;4.57;2.17;;;;;;;1.33;100.00;93831.22;2080197;28;20018;-88
2021/10/23 00:52:12;;;;;;;3.92;2.15;;;;;;;1.24;100.00;93830.59;2079548;28;20497;-86
2021/10/23 00:53:14;;;;;;;6.85;1.98;;;;;;;1.23;100.00;93826.44;2078983;28;20071;-86
2021/10/23 00:54:15;;;;;;;3.22;1.83;;;;;;;1.04;100.00;93828.97;2088385;28;20021;-88
2021/10/23 00:55:17;;;;;;;4.70;2.25;;;;;;;0.98;100.00;93828.44;2079846;28;20025;-88
2021/10/23 00:56:18;;;;;;;9.65;2.55;;;;;;;1.06;100.00;93822.25;2082443;28;20080;-86
2021/10/23 00:57:19;;;;;;;4.47;2.10;;;;;;;1.05;100.00;93815.44;2081310;28;20032;-86
2021/10/23 00:58:20;;;;;;;4.07;2.10;;;;;;;1.08;100.00;93819.28;2083047;28;20044;-86
2021/10/23 00:59:21;;;;;;;4.97;2.35;;;;;;;1.11;100.00;93821.25;2074401;28;20025;-85
2021/10/23 01:00:22;;;;;;;5.25;2.15;;;;;;;1.03;100.00;93819.53;2089882;28;20643;-89
2021/10/23 01:01:23;;;;;;;2.28;2.00;;;;;;;0.97;100.00;93819.78;2079470;28;20100;-88
2021/10/23 01:02:24;;;;;;;2.63;2.17;;;;;;;0.96;100.00;93812.97;2073279;28;20025;-88
2021/10/23 01:03:28;;;;;;;3.65;2.08;;;;;;;1.17;100.00;93815.38;2080830;28;20148;-85
2021/10/23 01:04:30;;;;;;;5.53;2.35;;;;;;;1.25;100.00;93811.81;2080142;28;20085;-88
2021/10/23 01:05:31;;;;;;;5.70;1.92;;;;;;;1.28;100.00;93807.75;2073791;28;20067;-89
2021/10/23 01:06:34;;;;;;;8.18;2.25;;;;;;;1.20;100.00;93813.94;2081960;28;20025;-85
2021/10/23 01:07:35;;;;;;;2.92;1.70;;;;;;;1.11;100.00;93808.84;2085778;28;20021;-86
2021/10/23 01:08:36;;;;;;;3.63;2.05;;;;;;;1.19;100.00;93810.56;2085856;28;20029;-87
2021/10/23 01:09:39;;;;;;;4.03;2.00;;;;;;;1.09;100.00;93811.03;2089772;28;20013;-90
2021/10/23 01:10:41;;;;;;;5.07;1.90;;;;;;;1.07;100.00;93815.88;2093813;28;20032;-87
2021/10/23 01:11:42;;;;;;;5.07;2.10;;;;;;;1.09;100.00;93816.31;2093812;28;20044;-86
2021/10/23 01:12:44;;;;;;;4.20;1.88;;;;;;;1.02;100.00;93818.78;2091317;28;20021;-91
2021/10/23 01:13:45;;;;;;;3.65;2.30;;;;;;;0.91;100.00;93818.47;2088468;28;20683;-90
2021/10/23 01:14:46;;;;;;;2.45;1.80;;;;;;;1.11;100.00;93822.00;2082328;28;20079;-88
2021/10/23 01:15:47;;;;;;;4.30;2.13;;;;;;;1.08;100.00;93820.03;2088545;28;20021;-88
2021/10/23 01:16:51;;;;;;;4.82;2.00;;;;;;;1.05;100.00;93817.31;2089439;28;20866;-87
2021/10/23 01:17:54;;;;;;;3.05;1.90;;;;;;;1.09;100.00;93818.19;2074199;28;20092;-87
2021/10/23 01:18:55;;;;;;;5.53;2.55;;;;;;;1.07;100.00;93823.03;2082037;28;20478;-87
2021/10/23 01:19:57;;;;;;;4.38;2.17;;;;;;;1.17;100.00;93818.00;2081528;28;20029;-86
2021/10/23 01:20:58;;;;;;;4.10;2.00;;;;;;;1.25;100.00;93819.72;2072748;28;20022;-88
2021/10/23 01:22:00;;;;;;;6.85;2.00;;;;;;;1.26;100.00;93820.47;2075661;28;20021;-90
2021/10/23 01:23:02;;;;;;;4.15;2.08;;;;;;;1.14;100.00;93825.81;2079356;28;20049;-86
2021/10/23 01:24:08;;;;;;;3.72;1.83;;;;;;;1.10;100.00;93822.31;2096116;28;20024;-87
2021/10/23 01:25:11;;;;;;;6.65;2.38;;;;;;;1.07;100.00;93825.66;2084848;28;20021;-86
2021/10/23 01:26:12;;;;;;;7.93;1.70;;;;;;;1.11;100.00;93818.63;2084694;28;20109;-86
2021/10/23 01:27:13;;;;;;;3.97;2.28;;;;;;;1.13;100.00;93819.03;2080771;28;20029;-89
2021/10/23 01:28:13;;;;;;;8.93;2.08;;;;;;;1.11;100.00;93822.00;2079835;28;20021;-85
2021/10/23 01:29:16;;;;;;;4.05;2.03;;;;;;;1.10;100.00;93820.50;2077580;28;20053;-88
2021/10/23 01:30:17;;;;;;;7.40;2.20;;;;;;;1.07;100.00;93821.16;2089854;28;20024;-86
2021/10/23 01:31:19;;;;;;;5.65;2.38;;;;;;;1.06;100.00;93819.63;2082219;28;20024;-86
2021/10/23 01:32:20;;;;;;;3.33;2.55;;;;;;;1.07;100.00;93807.22;2073910;28;20128;-89
2021/10/23 01:33:21;;;;;;;6.05;2.20;;;;;;;1.10;100.00;93814.44;2076554;28;20033;-85
2021/10/23 01:34:25;;;;;;;4.55;2.00;;;;;;;1.12;100.00;93817.50;2077843;28;20034;-86
2021/10/23 01:35:27;;;;;;;3.97;2.08;;;;;;;1.07;100.00;93818.53;2081011;28;20332;-88
2021/10/23 01:36:28;;;;;;;3.10;1.80;;;;;;;1.12;100.00;93814.88;2089899;28;20025;-89
2021/10/23 01:37:36;;;;;;;3.60;1.90;;;;;;;1.11;100.00;93816.75;2086674;28;20366;-87
2021/10/23 01:38:37;;;;;;;5.60;2.08;;;;;;;1.28;100.00;93809.63;2081807;28;20022;-87
2021/10/23 01:39:38;;;;;;;3.38;1.92;;;;;;;1.36;100.00;93813.94;2089323;28;20115;-89
2021/10/23 01:40:39;;;;;;;6.18;1.90;;;;;;;1.31;100.00;93814.19;2086389;28;20028;-88
2021/10/23 01:41:40;;;;;;;5.78;2.20;;;;;;;1.17;100.00;93819.88;2083279;28;20547;-87
2021/10/23 01:42:41;;;;;;;3.33;1.60;;;;;;;1.28;100.00;93822.81;2081335;28;20045;-85
2021/10/23 01:43:43;;;;;;;2.90;1.67;;;;;;;1.22;100.00;93817.00;2088215;28;20024;-89
2021/10/23 01:44:44;;;;;;;5.65;2.03;;;;;;;1.17;100.00;93820.66;2089800;28;20389;-87
2021/10/23 01:45:45;;;;;;;4.78;2.17;;;;;;;1.14;100.00;93816.06;2086560;28;20056;-89
2021/10/23 01:46:46;;;;;;;4.13;1.90;;;;;;;1.19;100.00;93820.31;2088186;28;20029;-88
2021/10/23 01:47:47;;;;;;;6.70;2.10;;;;;;;1.27;100.00;93819.38;2080092;28;20037;-86
2021/10/23 01:48:48;;;;;;;8.52;1.95;;;;;;;1.17;100.00;93817.25;2074328;28;20046;-89
2021/10/23 01:49:49;;;;;;;4.35;2.35;;;;;;;1.21;100.00;93816.22;2078555;28;20032;-88
2021/10/23 01:50:50;;;;;;;2.08;1.60;;;;;;;1.18;100.00;93816.91;2074185;28;20025;-89
2021/10/23 01:51:51;;;;;;;4.93;2.10;;;;;;;1.18;100.00;93816.16;2081664;28;20178;-89
2021/10/23 01:52:54;;;;;;;3.28;2.10;;;;;;;1.11;100.00;93813.34;2084922;28;20033;-89
2021/10/23 01:53:55;;;;;;;3.05;1.88;;;;;;;1.13;100.00;93819.03;2083744;28;20025;-88
2021/10/23 01:54:56;;;;;;;4.03;2.25;;;;;;;1.10;100.00;93814.44;2079185;28;20059;-89
2021/10/23 01:55:57;;;;;;;5.50;1.75;;;;;;;1.22;100.00;93817.00;2069978;28;20021;-88
2021/10/23 01:56:58;;;;;;;5.40;2.17;;;;;;;1.17;100.00;93817.25;2081275;28;20013;-88
2021/10/23 01:57:59;;;;;;;2.58;1.50;;;;;;;1.15;100.00;93820.22;2080837;28;20032;-92
2021/10/23 01:59:00;;;;;;;5.00;2.53;;;;;;;1.14;100.00;93816.06;2078864;28;20067;-86
2021/10/23 02:00:01;;;;;;;2.70;1.83;;;;;;;1.16;100.00;93818.38;2086626;28;20017;-88
2021/10/23 02:01:02;;;;;;;2.78;1.85;;;;;;;1.19;100.00;93815.81;2085193;28;20825;-90
2021/10/23 02:02:04;;;;;;;3.70;1.98;;;;;;;1.36;100.00;93811.31;2080220;28;20017;-87
2021/10/23 02:03:05;;;;;;;3.38;1.92;;;;;;;1.32;100.00;93810.47;2080321;28;20509;-85
2021/10/23 02:04:06;;;;;;;3.05;1.90;;;;;;;1.25;100.00;93805.78;2079588;28;20148;-88
2021/10/23 02:05:09;;;;;;;5.25;1.98;;;;;;;1.24;100.00;93804.28;2086605;28;20090;-88
2021/10/23 02:08:11;;;;;;;;;;;;;;;1.40;100.00;93805.03;2126667;27;20670;-86
2021/10/23 02:09:13;;;;;;;2.45;1.90;;;;;;;1.32;100.00;93805.97;2120265;28;20452;-86
2021/10/23 02:10:14;;;;;;;3.28;1.70;;;;;;;1.34;100.00;93800.38;2119270;28;20027;-86
2021/10/23 02:11:16;;;;;;;3.28;1.88;;;;;;;1.20;100.00;93806.81;2120387;28;20494;-87
2021/10/23 02:12:17;;;;;;;4.65;2.03;;;;;;;1.27;100.00;93800.94;2113595;28;20019;-87
2021/10/23 02:13:18;;;;;;;6.65;1.85;;;;;;;1.38;100.00;93806.47;2096951;28;20025;-88
2021/10/23 02:14:19;;;;;;;3.80;1.60;;;;;;;1.26;100.00;93804.69;2103986;28;20020;-85
2021/10/23 02:15:20;;;;;;;5.97;2.08;;;;;;;1.23;100.00;93798.25;2109754;28;20020;-85
2021/10/23 02:16:21;;;;;;;6.63;2.03;;;;;;;1.18;100.00;93809.00;2099411;28;20031;-86
2021/10/23 02:17:22;;;;;;;2.53;1.85;;;;;;;1.19;100.00;93801.91;2121095;27;20023;-86
2021/10/23 02:18:23;;;;;;;2.60;1.70;;;;;;;1.16;100.00;93802.56;2128635;27;20102;-85
2021/10/23 02:19:24;;;;;;;4.60;1.98;;;;;;;1.20;100.00;93803.41;2116975;27;20089;-84
2021/10/23 02:20:27;;;;;;;2.47;1.90;;;;;;;1.26;100.00;93805.44;2111664;28;20129;-86
2021/10/23 02:21:28;;;;;;;3.13;1.83;;;;;;;1.34;100.00;93801.13;2107928;28;20107;-87
2021/10/23 02:22:29;;;;;;;9.35;2.20;;;;;;;1.41;100.00;93806.56;2101054;28;20021;-85
2021/10/23 02:23:29;;;;;;;5.55;2.30;;;;;;;1.35;100.00;93807.91;2101062;28;20031;-86
2021/10/23 02:24:30;;;;;;;4.45;1.70;;;;;;;1.26;100.00;93821.25;2100986;28;20052;-86
2021/10/23 02:25:31;;;;;;;3.10;2.20;;;;;;;1.23;100.00;93816.69;2097089;28;20070;-86
2021/10/23 02:26:33;;;;;;;2.75;2.00;;;;;;;1.16;100.00;93808.59;2097062;28;20094;-87
2021/10/23 02:27:34;;;;;;;2.85;1.90;;;;;;;1.18;100.00;93816.91;2103820;28;20505;-86
2021/10/23 02:28:35;;;;;;;3.83;1.98;;;;;;;1.21;100.00;93818.88;2114900;28;20036;-87
2021/10/23 02:29:36;;;;;;;3.38;1.98;;;;;;;1.21;100.00;93810.97;2100197;28;20389;-87
2021/10/23 02:30:37;;;;;;;2.55;1.67;;;;;;;1.26;100.00;93821.25;2099768;28;20025;-86
2021/10/23 02:31:38;;;;;;;3.72;1.75;;;;;;;1.31;100.00;93811.56;2095552;28;20096;-87
2021/10/23 02:32:39;;;;;;;2.08;1.55;;;;;;;1.28;100.00;93814.91;2097353;28;20676;-87
2021/10/23 02:33:40;;;;;;;2.22;1.50;;;;;;;1.38;100.00;93817.78;2097214;28;20031;-86
2021/10/23 02:34:41;;;;;;;4.22;1.70;;;;;;;1.36;100.00;93817.38;2097353;28;20024;-87
2021/10/23 02:35:42;;;;;;;2.13;1.77;;;;;;;1.26;100.00;93815.22;2094856;28;20017;-86
2021/10/23 02:36:45;;;;;;;3.15;2.00;;;;;;;1.12;100.00;93820.91;2104832;28;20508;-86
2021/10/23 02:37:46;;;;;;;2.20;1.58;;;;;;;1.03;100.00;93820.28;2104064;28;20032;-87
2021/10/23 02:38:48;;;;;;;3.25;1.83;;;;;;;1.09;100.00;93815.53;2105278;28;20569;-86
2021/10/23 02:39:49;;;;;;;2.05;1.83;;;;;;;1.08;100.00;93816.66;2105289;28;20028;-86
2021/10/23 02:40:51;;;;;;;3.90;2.00;;;;;;;0.97;100.00;93814.53;2110905;28;20072;-87
2021/10/23 02:41:51;;;;;;;4.05;1.70;;;;;;;1.01;100.00;93817.25;2097902;28;20107;-86
2021/10/23 02:42:52;;;;;;;2.42;1.70;;;;;;;1.01;100.00;93812.00;2110824;28;20031;-86
2021/10/23 02:43:54;;;;;;;2.63;1.80;;;;;;;1.01;100.00;93817.25;2107279;28;20490;-87
2021/10/23 02:44:55;;;;;;;3.03;1.80;;;;;;;1.13;100.00;93811.13;2103452;28;20020;-87
2021/10/23 02:45:56;;;;;;;2.38;1.70;;;;;;;1.09;100.00;93803.13;2096181;28;20104;-86
2021/10/23 02:46:57;;;;;;;2.25;1.50;;;;;;;0.98;100.00;93807.38;2096044;28;20028;-88
2021/10/23 02:47:58;;;;;;;3.42;1.65;;;;;;;1.10;100.00;93815.22;2102342;28;20021;-87
2021/10/23 02:48:59;;;;;;;1.88;1.48;;;;;;;1.14;100.00;93808.19;2092564;28;20025;-86
2021/10/23 02:50:00;;;;;;;3.10;1.65;;;;;;;1.25;100.00;93814.47;2104018;28;20027;-86
2021/10/23 02:51:01;;;;;;;2.65;1.65;;;;;;;1.28;100.00;93809.63;2106405;28;20020;-86
2021/10/23 02:52:03;;;;;;;5.75;1.88;;;;;;;1.16;100.00;93821.75;2100876;28;20029;-87
2021/10/23 02:53:05;;;;;;;2.28;1.95;;;;;;;1.14;100.00;93815.28;2107540;28;20430;-86
2021/10/23 02:54:06;;;;;;;2.67;1.60;;;;;;;1.05;100.00;93818.06;2107917;28;20137;-85
2021/10/23 02:55:08;;;;;;;2.47;1.52;;;;;;;1.06;100.00;93819.63;2103295;28;20104;-85
2021/10/23 02:56:09;;;;;;;2.38;1.58;;;;;;;1.07;100.00;93823.03;2101820;28;20115;-85
2021/10/23 02:57:10;;;;;;;2.15;1.95;;;;;;;1.02;100.00;93829.31;2098400;28;20017;-85
2021/10/23 02:58:11;;;;;;;4.32;1.70;;;;;;;1.06;100.00;93827.53;2095629;28;20465;-86
2021/10/23 02:59:12;;;;;;;4.38;1.70;;;;;;;0.95;100.00;93813.31;2104781;28;20024;-85
2021/10/23 03:00:14;;;;;;;4.82;2.08;;;;;;;0.95;100.00;93824.59;2109747;28;20385;-86
2021/10/23 03:01:15;;;;;;;3.28;1.70;;;;;;;0.98;100.00;93816.03;2096187;28;20067;-87
2021/10/23 03:02:15;;;;;;;3.13;1.60;;;;;;;1.07;100.00;93830.91;2094247;28;20021;-88
2021/10/23 03:03:16;;;;;;;3.67;2.22;;;;;;;1.05;100.00;93819.94;2096644;28;20044;-85
2021/10/23 03:04:17;;;;;;;3.55;1.83;;;;;;;1.06;100.00;93830.16;2104935;28;20027;-86
2021/10/23 03:05:21;;;;;;;1.90;1.60;;;;;;;1.06;100.00;93829.41;2105889;28;20030;-86
2021/10/23 03:06:22;;;;;;;5.07;1.90;;;;;;;1.09;100.00;93824.19;2110434;28;20119;-86
2021/10/23 03:07:24;;;;;;;4.47;2.10;;;;;;;1.23;100.00;93832.47;2095877;28;20029;-85
2021/10/23 03:08:25;;;;;;;3.45;2.22;;;;;;;1.18;100.00;93827.44;2101947;28;20024;-85
2021/10/23 03:09:25;;;;;;;2.30;2.08;;;;;;;1.21;100.00;93836.53;2093389;28;20091;-85
2021/10/23 03:10:26;;;;;;;3.05;1.75;;;;;;;1.18;100.00;93834.56;2102133;28;20016;-87
2021/10/23 03:11:27;;;;;;;3.65;2.00;;;;;;;1.14;100.00;93833.72;2103755;28;20024;-87
2021/10/23 03:12:28;;;;;;;2.92;1.90;;;;;;;1.07;100.00;93839.59;2111408;28;20025;-86
2021/10/23 03:13:30;;;;;;;4.63;2.08;;;;;;;1.09;100.00;93836.59;2111669;28;20095;-87
2021/10/23 03:14:32;;;;;;;3.40;2.20;;;;;;;1.10;100.00;93836.28;2120504;28;20385;-87
2021/10/23 03:15:33;;;;;;;5.32;2.40;;;;;;;0.99;100.00;93840.50;2104233;28;20542;-85
2021/10/23 03:16:35;;;;;;;4.32;2.00;;;;;;;1.02;100.00;93839.84;2104979;28;20118;-85
2021/10/23 03:17:36;;;;;;;3.67;2.15;;;;;;;1.13;100.00;93840.84;2096935;28;20071;-86
2021/10/23 03:18:39;;;;;;;4.38;2.30;;;;;;;0.98;100.00;93839.72;2110736;28;20118;-86
2021/10/23 03:19:40;;;;;;;4.47;2.00;;;;;;;1.11;100.00;93834.41;2106383;27;20032;-84
2021/10/23 03:20:41;;;;;;;6.50;2.83;;;;;;;1.00;100.00;93828.84;2103267;28;20043;-86
2021/10/23 03:21:42;;;;;;;7.43;2.08;;;;;;;0.94;100.00;93838.13;2090679;28;20033;-86
2021/10/23 03:22:43;;;;;;;7.75;2.30;;;;;;;1.05;100.00;93836.50;2105193;28;20024;-88
2021/10/23 03:23:44;;;;;;;3.92;2.30;;;;;;;1.06;100.00;93840.69;2102261;28;20535;-86
2021/10/23 03:24:45;;;;;;;3.92;2.00;;;;;;;1.10;100.00;93844.19;2085864;28;20025;-85
2021/10/23 03:25:46;;;;;;;5.00;1.90;;;;;;;1.06;100.00;93845.19;2106219;28;20028;-86
2021/10/23 03:26:47;;;;;;;4.07;2.17;;;;;;;1.05;100.00;93848.91;2106004;28;20032;-85
2021/10/23 03:27:48;;;;;;;7.63;2.33;;;;;;;1.13;100.00;93848.00;2105510;28;20476;-86
2021/10/23 03:28:49;;;;;;;4.55;2.30;;;;;;;1.05;100.00;93852.31;2099195;28;20123;-85
2021/10/23 03:29:50;;;;;;;4.47;1.80;;;;;;;1.13;100.00;93855.88;2096485;28;20021;-84
2021/10/23 03:30:52;;;;;;;5.40;2.70;;;;;;;1.09;100.00;93850.53;2095822;28;20462;-85
2021/10/23 03:31:54;;;;;;;5.13;2.13;;;;;;;0.92;100.00;93854.25;2095597;28;20020;-85
2021/10/23 03:32:56;;;;;;;2.72;2.15;;;;;;;0.94;100.00;93862.56;2091137;28;20059;-86
2021/10/23 03:33:57;;;;;;;3.10;1.98;;;;;;;1.01;100.00;93859.38;2099316;28;20598;-85
2021/10/23 03:35:01;;;;;;;3.08;2.03;;;;;;;1.04;100.00;93860.53;2099120;28;20024;-84
2021/10/23 03:36:03;;;;;;;5.78;2.22;;;;;;;1.08;100.00;93862.16;2093742;28;20032;-86
2021/10/23 03:37:04;;;;;;;5.35;1.90;;;;;;;1.03;100.00;93862.41;2096655;28;20043;-84
2021/10/23 03:38:06;;;;;;;5.85;2.17;;;;;;;0.93;100.00;93863.66;2096014;28;20025;-86
2021/10/23 03:39:07;;;;;;;5.97;2.15;;;;;;;0.93;100.00;93857.66;2096067;28;20025;-85
2021/10/23 03:40:08;;;;;;;4.70;2.20;;;;;;;0.91;100.00;93862.47;2101362;28;20021;-85
2021/10/23 03:41:09;;;;;;;3.35;2.17;;;;;;;0.87;100.00;93865.00;2105551;28;20016;-86
2021/10/23 03:42:10;;;;;;;4.63;2.28;;;;;;;0.96;100.00;93868.25;2100416;28;20016;-85
2021/10/23 03:43:11;;;;;;;5.70;1.85;;;;;;;1.00;100.00;93866.47;2104763;28;20020;-85
2021/10/23 03:44:12;;;;;;;3.53;2.08;;;;;;;1.16;100.00;93871.03;2102153;28;20032;-85
2021/10/23 03:45:13;;;;;;;3.63;2.05;;;;;;;1.07;100.00;93868.53;2090340;28;20050;-85
2021/10/23 03:46:14;;;;;;;5.28;1.95;;;;;;;1.05;100.00;93869.97;2090853;28;20021;-88
2021/10/23 03:47:16;;;;;;;4.18;2.22;;;;;;;1.06;100.00;93871.53;2090666;28;20025;-85
2021/10/23 03:48:17;;;;;;;6.57;2.33;;;;;;;1.08;100.00;93871.94;2090412;28;20119;-86
2021/10/23 03:49:18;;;;;;;4.10;2.20;;;;;;;1.05;100.00;93875.22;2086549;28;20401;-85
2021/10/23 03:50:19;;;;;;;5.40;1.73;;;;;;;0.99;100.00;93878.09;2097015;28;20024;-85
2021/10/23 03:51:20;;;;;;;3.85;2.10;;;;;;;1.04;100.00;93884.22;2102258;28;20469;-87
2021/10/23 03:52:21;;;;;;;2.97;1.70;;;;;;;1.03;100.00;93877.44;2101116;28;20469;-86
2021/10/23 03:53:22;;;;;;;7.95;2.20;;;;;;;0.97;100.00;93869.03;2095586;28;20508;-87
2021/10/23 03:54:24;;;;;;;5.15;2.10;;;;;;;1.14;100.00;93875.84;2096907;28;20024;-88
2021/10/23 03:55:25;;;;;;;3.53;1.65;;;;;;;1.17;100.00;93873.31;2093293;28;20074;-87
2021/10/23 03:56:26;;;;;;;2.97;1.83;;;;;;;1.05;100.00;93870.72;2105292;28;20455;-86
2021/10/23 03:57:27;;;;;;;6.13;1.88;;;;;;;0.91;100.00;93871.13;2093074;28;20112;-87
2021/10/23 03:58:28;;;;;;;6.38;2.60;;;;;;;0.99;100.00;93870.22;2090677;28;20029;-85
2021/10/23 03:59:29;;;;;;;3.40;1.80;;;;;;;1.03;100.00;93867.69;2088561;28;20571;-86
2021/10/23 04:00:31;;;;;;;4.25;1.90;;;;;;;1.00;100.00;93874.38;2107087;28;20028;-86
2021/10/23 04:01:33;;;;;;;2.35;1.55;;;;;;;1.07;100.00;93867.78;2093936;28;20025;-85
2021/10/23 04:02:34;;;;;;;6.00;2.35;;;;;;;1.01;100.00;93864.63;2096195;28;20091;-86
2021/10/23 04:03:35;;;;;;;3.63;1.63;;;;;;;1.08;100.00;93856.91;2095739;28;20075;-85
2021/10/23 04:04:36;;;;;;;4.22;2.28;;;;;;;1.05;100.00;93860.19;2090052;28;20029;-85
2021/10/23 04:05:37;;;;;;;3.55;1.73;;;;;;;1.03;100.00;93866.91;2090854;28;20021;-85
2021/10/23 04:06:39;;;;;;;4.45;1.83;;;;;;;1.05;100.00;93859.44;2099009;28;20488;-85
2021/10/23 04:07:40;;;;;;;3.22;1.70;;;;;;;1.08;100.00;93862.16;2103061;28;20043;-87
2021/10/23 04:08:42;;;;;;;3.72;2.10;;;;;;;1.02;100.00;93866.16;2094467;28;20373;-85
2021/10/23 04:09:43;;;;;;;5.57;1.90;;;;;;;1.12;100.00;93862.25;2085002;28;20032;-86
2021/10/23 04:10:44;;;;;;;3.75;1.77;;;;;;;1.04;100.00;93855.28;2090369;28;20067;-87
2021/10/23 04:11:46;;;;;;;2.60;1.92;;;;;;;1.15;100.00;93856.34;2097348;28;20066;-86
2021/10/23 04:12:47;;;;;;;2.47;1.90;;;;;;;1.11;100.00;93860.75;2098168;28;20060;-85
2021/10/23 04:13:48;;;;;;;2.50;2.05;;;;;;;1.07;100.00;93857.25;2096941;28;20032;-86
2021/10/23 04:14:49;;;;;;;3.53;1.92;;;;;;;1.05;100.00;93862.84;2097852;28;20466;-86
2021/10/23 04:15:52;;;;;;;3.42;2.08;;;;;;;1.25;100.00;93856.59;2109502;28;20026;-85
2021/10/23 04:16:53;;;;;;;5.22;2.00;;;;;;;1.11;100.00;93855.47;2101563;28;20071;-87
2021/10/23 04:17:54;;;;;;;4.50;1.92;;;;;;;1.12;100.00;93857.00;2098476;28;20486;-88
2021/10/23 04:18:55;;;;;;;4.75;2.20;;;;;;;1.09;100.00;93858.44;2096633;28;20028;-85
2021/10/23 04:19:56;;;;;;;3.53;1.85;;;;;;;1.16;100.00;93860.50;2093415;28;20024;-85
2021/10/23 04:20:58;;;;;;;4.28;1.80;;;;;;;1.18;100.00;93853.00;2091533;28;20052;-85
2021/10/23 04:21:59;;;;;;;2.50;1.83;;;;;;;1.14;100.00;93858.19;2098556;28;20025;-86
2021/10/23 04:23:00;;;;;;;4.53;2.35;;;;;;;1.12;100.00;93854.38;2088686;28;20025;-86
2021/10/23 04:24:01;;;;;;;5.63;2.20;;;;;;;1.01;100.00;93851.47;2090021;28;20021;-87
2021/10/23 04:25:03;;;;;;;4.03;1.98;;;;;;;0.97;100.00;93851.38;2097526;28;20016;-87
2021/10/23 04:26:04;;;;;;;3.90;2.20;;;;;;;1.12;100.00;93851.72;2107792;28;20098;-86
2021/10/23 04:27:05;;;;;;;3.60;1.83;;;;;;;1.03;100.00;93864.28;2092725;28;20076;-86
2021/10/23 04:28:06;;;;;;;3.00;1.73;;;;;;;1.05;100.00;93852.31;2089162;28;20444;-87
2021/10/23 04:29:07;;;;;;;4.43;2.00;;;;;;;1.03;100.00;93859.03;2101050;28;20086;-88
2021/10/23 04:30:09;;;;;;;5.38;2.00;;;;;;;1.09;100.00;93855.03;2106164;28;20020;-88
2021/10/23 04:31:11;;;;;;;8.35;1.80;;;;;;;1.10;100.00;93853.91;2101946;28;20418;-88
2021/10/23 04:32:12;;;;;;;2.10;1.60;;;;;;;1.04;100.00;93850.78;2112909;27;20482;-86
2021/10/23 04:33:13;;;;;;;4.13;2.17;;;;;;;1.04;100.00;93855.28;2102827;28;20107;-86
2021/10/23 04:34:15;;;;;;;6.60;2.20;;;;;;;1.10;100.00;93857.34;2092385;28;20012;-87
2021/10/23 04:35:18;;;;;;;3.88;1.65;;;;;;;1.08;100.00;93853.50;2105780;28;20130;-87
2021/10/23 04:36:18;;;;;;;5.00;1.98;;;;;;;1.08;100.00;93853.50;2099818;28;20119;-87
2021/10/23 04:37:19;;;;;;;3.88;1.63;;;;;;;1.06;100.00;93853.09;2082275;28;20026;-85
2021/10/23 04:38:20;;;;;;;4.15;1.58;;;;;;;0.97;100.00;93861.13;2085783;28;20025;-87
2021/10/23 04:39:21;;;;;;;3.22;2.13;;;;;;;0.94;100.00;93854.66;2086513;28;20112;-86
2021/10/23 04:40:22;;;;;;;2.95;1.90;;;;;;;0.99;100.00;93851.78;2087606;28;20051;-86
2021/10/23 04:41:23;;;;;;;5.57;2.20;;;;;;;0.97;100.00;93845.34;2089442;28;20025;-86
2021/10/23 04:42:24;;;;;;;2.03;1.80;;;;;;;0.95;100.00;93850.16;2090089;28;20078;-86
2021/10/23 04:43:25;;;;;;;4.65;1.85;;;;;;;1.04;100.00;93852.66;2096680;28;20043;-87
2021/10/23 04:44:27;;;;;;;4.78;2.30;;;;;;;1.11;100.00;93852.84;2090009;28;20052;-87
2021/10/23 04:45:28;;;;;;;3.33;1.90;;;;;;;1.14;100.00;93847.66;2096334;28;20108;-86
2021/10/23 04:46:28;;;;;;;3.35;1.83;;;;;;;1.18;100.00;93858.28;2104189;28;20044;-86
2021/10/23 04:47:29;;;;;;;3.58;2.00;;;;;;;1.13;100.00;93855.88;2104659;28;20023;-88
2021/10/23 04:48:32;;;;;;;3.97;2.10;;;;;;;1.23;100.00;93858.03;2096728;28;20040;-87
2021/10/23 04:49:33;;;;;;;3.22;1.90;;;;;;;1.14;100.00;93857.41;2098976;28;20478;-87
2021/10/23 04:50:34;;;;;;;5.47;2.13;;;;;;;1.09;100.00;93855.03;2097412;28;20378;-88